In Rescue
 
Open Full Screen Window  High Contrast Mode
Wind Gusting 16 knots
11
May 13, 2021 11:03 AM CDT
Weather Information
Wind Direction
  230 °
Wind Speed
  11 kt (13 mph)
Wind Gust
  16 kt (18 mph)
Altimeter
30.35 in
Visibility
10 SM
Temperature
19° C
66° F
Dewpoint
-02° C
28° F
Humidity
24%
1hr Rain Fall
00.00 in.
24hr Rain Fall
00.00 in.
Sky Condition
Clear
VFR

METAR KSYN 131603Z AUTO 23011G16KT 10SM CLR 19/M02 A3035 RMK AO2 T01851016

FAA Disclaimer: The data displayed is for advisory purposes only and is not to be used for flight planning or operations.